sensor_id;sensor_type;location;lat;lon;timestamp;temperature;humidity
49042;DHT22;34859;51.608;11.462;2022-12-29T00:01:36;7.80;99.90
49042;DHT22;34859;51.608;11.462;2022-12-29T00:04:03;7.70;99.90
49042;DHT22;34859;51.608;11.462;2022-12-29T00:06:28;7.70;99.90
49042;DHT22;34859;51.608;11.462;2022-12-29T00:08:54;7.80;99.90
49042;DHT22;34859;51.608;11.462;2022-12-29T00:11:21;7.80;99.90
49042;DHT22;34859;51.608;11.462;2022-12-29T00:13:47;7.80;99.90
49042;DHT22;34859;51.608;11.462;2022-12-29T00:16:32;7.90;99.90
49042;DHT22;34859;51.608;11.462;2022-12-29T00:19:02;8.00;99.90
49042;DHT22;34859;51.608;11.462;2022-12-29T00:21:28;8.10;99.90
49042;DHT22;34859;51.608;11.462;2022-12-29T00:24:13;8.00;99.90
49042;DHT22;34859;51.608;11.462;2022-12-29T00:29:48;8.10;99.90
49042;DHT22;34859;51.608;11.462;2022-12-29T00:32:36;8.10;99.90
49042;DHT22;34859;51.608;11.462;2022-12-29T00:35:28;8.10;99.90
49042;DHT22;34859;51.608;11.462;2022-12-29T00:37:53;8.10;99.90
49042;DHT22;34859;51.608;11.462;2022-12-29T00:40:39;8.20;99.90
49042;DHT22;34859;51.608;11.462;2022-12-29T00:43:23;8.20;99.90
49042;DHT22;34859;51.608;11.462;2022-12-29T00:46:08;8.20;99.90
49042;DHT22;34859;51.608;11.462;2022-12-29T00:48:33;8.30;99.90
49042;DHT22;34859;51.608;11.462;2022-12-29T00:51:17;8.30;99.90
49042;DHT22;34859;51.608;11.462;2022-12-29T00:53:43;8.40;99.90
49042;DHT22;34859;51.608;11.462;2022-12-29T00:56:09;8.40;99.90
49042;DHT22;34859;51.608;11.462;2022-12-29T00:58:34;8.40;99.90
49042;DHT22;34859;51.608;11.462;2022-12-29T01:01:01;8.50;99.90
49042;DHT22;34859;51.608;11.462;2022-12-29T01:03:27;8.50;99.90
49042;DHT22;34859;51.608;11.462;2022-12-29T01:05:52;8.50;99.90
49042;DHT22;34859;51.608;11.462;2022-12-29T01:08:18;8.60;99.90
49042;DHT22;34859;51.608;11.462;2022-12-29T01:10:44;8.60;99.90
49042;DHT22;34859;51.608;11.462;2022-12-29T01:13:09;8.50;99.90
49042;DHT22;34859;51.608;11.462;2022-12-29T01:15:35;8.50;99.90
49042;DHT22;34859;51.608;11.462;2022-12-29T01:18:00;8.50;99.90
49042;DHT22;34859;51.608;11.462;2022-12-29T01:20:27;8.50;99.90
49042;DHT22;34859;51.608;11.462;2022-12-29T01:22:54;8.60;99.90
49042;DHT22;34859;51.608;11.462;2022-12-29T01:25:19;8.60;99.90
49042;DHT22;34859;51.608;11.462;2022-12-29T01:27:45;8.60;99.90
49042;DHT22;34859;51.608;11.462;2022-12-29T01:30:11;8.60;99.90
49042;DHT22;34859;51.608;11.462;2022-12-29T01:32:38;8.70;99.90
49042;DHT22;34859;51.608;11.462;2022-12-29T01:35:03;8.70;99.90
49042;DHT22;34859;51.608;11.462;2022-12-29T01:37:29;8.70;99.90
49042;DHT22;34859;51.608;11.462;2022-12-29T01:39:55;8.70;99.90
49042;DHT22;34859;51.608;11.462;2022-12-29T01:42:23;8.70;99.90
49042;DHT22;34859;51.608;11.462;2022-12-29T01:44:56;8.70;99.90
49042;DHT22;34859;51.608;11.462;2022-12-29T01:49:56;8.70;99.90
49042;DHT22;34859;51.608;11.462;2022-12-29T01:52:22;8.80;99.90
49042;DHT22;34859;51.608;11.462;2022-12-29T01:54:49;8.80;99.90
49042;DHT22;34859;51.608;11.462;2022-12-29T01:57:17;8.80;99.90
49042;DHT22;34859;51.608;11.462;2022-12-29T01:59:47;8.80;99.90
49042;DHT22;34859;51.608;11.462;2022-12-29T02:02:14;8.70;99.90
49042;DHT22;34859;51.608;11.462;2022-12-29T02:04:40;8.70;99.90
49042;DHT22;34859;51.608;11.462;2022-12-29T02:07:11;8.70;99.90
49042;DHT22;34859;51.608;11.462;2022-12-29T02:09:39;8.70;99.90
49042;DHT22;34859;51.608;11.462;2022-12-29T02:12:05;8.70;99.90
49042;DHT22;34859;51.608;11.462;2022-12-29T02:14:31;8.60;99.90
49042;DHT22;34859;51.608;11.462;2022-12-29T02:19:55;8.70;99.90
49042;DHT22;34859;51.608;11.462;2022-12-29T02:22:46;8.70;99.90
49042;DHT22;34859;51.608;11.462;2022-12-29T02:33:00;8.70;99.90
49042;DHT22;34859;51.608;11.462;2022-12-29T02:35:43;8.70;99.90
49042;DHT22;34859;51.608;11.462;2022-12-29T02:38:16;8.70;99.90
49042;DHT22;34859;51.608;11.462;2022-12-29T02:43:59;8.70;99.90
49042;DHT22;34859;51.608;11.462;2022-12-29T02:45:58;8.80;99.90
49042;DHT22;34859;51.608;11.462;2022-12-29T02:50:52;8.80;99.90
49042;DHT22;34859;51.608;11.462;2022-12-29T02:53:21;8.90;99.90
49042;DHT22;34859;51.608;11.462;2022-12-29T02:56:08;9.00;99.90
49042;DHT22;34859;51.608;11.462;2022-12-29T02:58:33;9.00;99.90
49042;DHT22;34859;51.608;11.462;2022-12-29T03:09:11;9.10;99.90
49042;DHT22;34859;51.608;11.462;2022-12-29T03:11:41;9.10;99.90
49042;DHT22;34859;51.608;11.462;2022-12-29T03:14:29;9.10;99.90
49042;DHT22;34859;51.608;11.462;2022-12-29T03:20:04;9.20;99.90
49042;DHT22;34859;51.608;11.462;2022-12-29T03:22:32;9.20;99.90
49042;DHT22;34859;51.608;11.462;2022-12-29T03:25:10;9.30;99.90
49042;DHT22;34859;51.608;11.462;2022-12-29T03:27:41;9.20;99.90
49042;DHT22;34859;51.608;11.462;2022-12-29T03:30:08;9.30;99.90
49042;DHT22;34859;51.608;11.462;2022-12-29T03:32:36;9.30;99.90
49042;DHT22;34859;51.608;11.462;2022-12-29T03:35:04;9.20;99.90
49042;DHT22;34859;51.608;11.462;2022-12-29T03:37:31;9.10;99.90
49042;DHT22;34859;51.608;11.462;2022-12-29T03:40:00;9.20;99.90
49042;DHT22;34859;51.608;11.462;2022-12-29T03:42:26;9.20;99.90
49042;DHT22;34859;51.608;11.462;2022-12-29T03:44:54;9.30;99.90
49042;DHT22;34859;51.608;11.462;2022-12-29T03:47:22;9.30;99.90
49042;DHT22;34859;51.608;11.462;2022-12-29T03:49:47;9.30;99.90
49042;DHT22;34859;51.608;11.462;2022-12-29T03:52:14;9.20;99.90
49042;DHT22;34859;51.608;11.462;2022-12-29T03:54:39;9.20;99.90
49042;DHT22;34859;51.608;11.462;2022-12-29T03:57:05;9.30;99.90
49042;DHT22;34859;51.608;11.462;2022-12-29T03:59:30;9.20;99.90
49042;DHT22;34859;51.608;11.462;2022-12-29T04:01:56;9.20;99.90
49042;DHT22;34859;51.608;11.462;2022-12-29T04:04:22;9.20;99.90
49042;DHT22;34859;51.608;11.462;2022-12-29T04:06:47;9.20;99.90
49042;DHT22;34859;51.608;11.462;2022-12-29T04:09:13;9.20;99.90
49042;DHT22;34859;51.608;11.462;2022-12-29T04:11:39;9.20;99.90
49042;DHT22;34859;51.608;11.462;2022-12-29T04:14:04;9.20;99.90
49042;DHT22;34859;51.608;11.462;2022-12-29T04:16:30;9.20;99.90
49042;DHT22;34859;51.608;11.462;2022-12-29T04:18:56;9.20;99.90
49042;DHT22;34859;51.608;11.462;2022-12-29T04:21:22;9.30;99.90
49042;DHT22;34859;51.608;11.462;2022-12-29T04:23:47;9.20;99.90
49042;DHT22;34859;51.608;11.462;2022-12-29T04:26:13;9.10;99.90
49042;DHT22;34859;51.608;11.462;2022-12-29T04:28:39;9.10;99.90
49042;DHT22;34859;51.608;11.462;2022-12-29T04:31:04;9.10;99.90
49042;DHT22;34859;51.608;11.462;2022-12-29T04:33:30;9.00;99.90
49042;DHT22;34859;51.608;11.462;2022-12-29T04:35:56;9.00;99.90
49042;DHT22;34859;51.608;11.462;2022-12-29T04:38:22;9.00;99.90
49042;DHT22;34859;51.608;11.462;2022-12-29T04:40:48;9.00;99.90
49042;DHT22;34859;51.608;11.462;2022-12-29T04:43:14;9.00;99.90
49042;DHT22;34859;51.608;11.462;2022-12-29T04:45:44;9.00;99.90
49042;DHT22;34859;51.608;11.462;2022-12-29T04:48:09;9.00;99.90
49042;DHT22;34859;51.608;11.462;2022-12-29T04:50:35;9.00;99.90
49042;DHT22;34859;51.608;11.462;2022-12-29T04:53:00;9.00;99.90
49042;DHT22;34859;51.608;11.462;2022-12-29T04:55:26;9.00;99.90
49042;DHT22;34859;51.608;11.462;2022-12-29T04:57:52;9.00;99.90
49042;DHT22;34859;51.608;11.462;2022-12-29T05:00:18;9.10;99.90
49042;DHT22;34859;51.608;11.462;2022-12-29T05:02:43;9.10;99.90
49042;DHT22;34859;51.608;11.462;2022-12-29T05:05:10;9.10;99.90
49042;DHT22;34859;51.608;11.462;2022-12-29T05:07:35;9.10;99.90
49042;DHT22;34859;51.608;11.462;2022-12-29T05:10:01;9.10;99.90
49042;DHT22;34859;51.608;11.462;2022-12-29T05:12:30;9.10;99.90
49042;DHT22;34859;51.608;11.462;2022-12-29T05:14:56;9.00;99.90
49042;DHT22;34859;51.608;11.462;2022-12-29T05:17:22;9.10;99.90
49042;DHT22;34859;51.608;11.462;2022-12-29T05:19:48;9.10;99.90
49042;DHT22;34859;51.608;11.462;2022-12-29T05:22:32;9.20;99.90
49042;DHT22;34859;51.608;11.462;2022-12-29T05:25:16;9.20;99.90
49042;DHT22;34859;51.608;11.462;2022-12-29T05:27:42;9.10;99.90
49042;DHT22;34859;51.608;11.462;2022-12-29T05:30:08;9.10;99.90
49042;DHT22;34859;51.608;11.462;2022-12-29T05:32:34;9.20;99.90
49042;DHT22;34859;51.608;11.462;2022-12-29T05:34:59;9.20;99.90
49042;DHT22;34859;51.608;11.462;2022-12-29T05:37:25;9.20;99.90
49042;DHT22;34859;51.608;11.462;2022-12-29T05:39:51;9.30;99.90
49042;DHT22;34859;51.608;11.462;2022-12-29T05:42:16;9.30;99.90
49042;DHT22;34859;51.608;11.462;2022-12-29T05:44:42;9.30;99.90
49042;DHT22;34859;51.608;11.462;2022-12-29T05:47:07;9.40;99.90
49042;DHT22;34859;51.608;11.462;2022-12-29T05:49:33;9.30;99.90
49042;DHT22;34859;51.608;11.462;2022-12-29T05:51:59;9.40;99.90
49042;DHT22;34859;51.608;11.462;2022-12-29T05:54:24;9.40;99.90
49042;DHT22;34859;51.608;11.462;2022-12-29T05:56:50;9.40;99.90
49042;DHT22;34859;51.608;11.462;2022-12-29T05:59:15;9.40;99.90
49042;DHT22;34859;51.608;11.462;2022-12-29T06:01:41;9.40;99.90
49042;DHT22;34859;51.608;11.462;2022-12-29T06:04:07;9.40;99.90
49042;DHT22;34859;51.608;11.462;2022-12-29T06:06:32;9.40;99.90
49042;DHT22;34859;51.608;11.462;2022-12-29T06:08:58;9.50;99.90
49042;DHT22;34859;51.608;11.462;2022-12-29T06:11:24;9.50;99.90
49042;DHT22;34859;51.608;11.462;2022-12-29T06:13:49;9.50;99.90
49042;DHT22;34859;51.608;11.462;2022-12-29T06:16:15;9.50;99.90
49042;DHT22;34859;51.608;11.462;2022-12-29T06:18:40;9.50;99.90
49042;DHT22;34859;51.608;11.462;2022-12-29T06:21:06;9.50;99.90
49042;DHT22;34859;51.608;11.462;2022-12-29T06:23:32;9.50;99.90
49042;DHT22;34859;51.608;11.462;2022-12-29T06:25:58;9.50;99.90
49042;DHT22;34859;51.608;11.462;2022-12-29T06:28:24;9.50;99.90
49042;DHT22;34859;51.608;11.462;2022-12-29T06:30:49;9.40;99.90
49042;DHT22;34859;51.608;11.462;2022-12-29T06:33:15;9.40;99.90
49042;DHT22;34859;51.608;11.462;2022-12-29T06:35:42;9.40;99.90
49042;DHT22;34859;51.608;11.462;2022-12-29T06:38:08;9.40;99.90
49042;DHT22;34859;51.608;11.462;2022-12-29T06:40:34;9.30;99.90
49042;DHT22;34859;51.608;11.462;2022-12-29T06:43:00;9.30;99.90
49042;DHT22;34859;51.608;11.462;2022-12-29T06:45:26;9.20;99.90
49042;DHT22;34859;51.608;11.462;2022-12-29T06:47:51;9.30;99.90
49042;DHT22;34859;51.608;11.462;2022-12-29T06:50:17;9.10;99.90
49042;DHT22;34859;51.608;11.462;2022-12-29T06:52:42;9.20;99.90
49042;DHT22;34859;51.608;11.462;2022-12-29T06:55:08;9.20;99.90
49042;DHT22;34859;51.608;11.462;2022-12-29T06:57:34;9.20;99.90
49042;DHT22;34859;51.608;11.462;2022-12-29T06:59:59;9.20;99.90
49042;DHT22;34859;51.608;11.462;2022-12-29T07:02:25;9.30;99.90
49042;DHT22;34859;51.608;11.462;2022-12-29T07:04:51;9.30;99.90
49042;DHT22;34859;51.608;11.462;2022-12-29T07:07:18;9.30;99.90
49042;DHT22;34859;51.608;11.462;2022-12-29T07:09:43;9.30;99.90
49042;DHT22;34859;51.608;11.462;2022-12-29T07:12:09;9.40;99.90
49042;DHT22;34859;51.608;11.462;2022-12-29T07:14:34;9.40;99.90
49042;DHT22;34859;51.608;11.462;2022-12-29T07:17:01;9.50;99.90
49042;DHT22;34859;51.608;11.462;2022-12-29T07:19:27;9.60;99.90
49042;DHT22;34859;51.608;11.462;2022-12-29T07:21:54;9.50;99.90
49042;DHT22;34859;51.608;11.462;2022-12-29T07:24:19;9.60;99.90
49042;DHT22;34859;51.608;11.462;2022-12-29T07:26:45;9.70;99.90
49042;DHT22;34859;51.608;11.462;2022-12-29T07:29:11;9.70;99.90
49042;DHT22;34859;51.608;11.462;2022-12-29T07:31:36;9.70;99.90
49042;DHT22;34859;51.608;11.462;2022-12-29T07:34:02;9.70;99.90
49042;DHT22;34859;51.608;11.462;2022-12-29T07:36:27;9.70;99.90
49042;DHT22;34859;51.608;11.462;2022-12-29T07:38:53;9.70;99.90
49042;DHT22;34859;51.608;11.462;2022-12-29T07:41:19;9.70;99.90
49042;DHT22;34859;51.608;11.462;2022-12-29T07:43:48;9.80;99.90
49042;DHT22;34859;51.608;11.462;2022-12-29T07:46:14;9.80;99.90
49042;DHT22;34859;51.608;11.462;2022-12-29T07:48:39;9.80;99.90
49042;DHT22;34859;51.608;11.462;2022-12-29T07:51:05;9.90;99.90
49042;DHT22;34859;51.608;11.462;2022-12-29T07:53:31;9.90;99.90
49042;DHT22;34859;51.608;11.462;2022-12-29T07:55:57;9.90;99.90
49042;DHT22;34859;51.608;11.462;2022-12-29T07:58:23;10.00;99.90
49042;DHT22;34859;51.608;11.462;2022-12-29T08:00:53;10.00;99.90
49042;DHT22;34859;51.608;11.462;2022-12-29T08:03:18;10.00;99.90
49042;DHT22;34859;51.608;11.462;2022-12-29T08:05:44;10.00;99.90
49042;DHT22;34859;51.608;11.462;2022-12-29T08:08:09;9.90;99.90
49042;DHT22;34859;51.608;11.462;2022-12-29T08:10:35;9.90;99.90
49042;DHT22;34859;51.608;11.462;2022-12-29T08:13:00;10.10;99.90
49042;DHT22;34859;51.608;11.462;2022-12-29T08:15:26;10.20;99.90
49042;DHT22;34859;51.608;11.462;2022-12-29T08:17:52;10.20;99.90
49042;DHT22;34859;51.608;11.462;2022-12-29T08:20:17;10.30;99.90
49042;DHT22;34859;51.608;11.462;2022-12-29T08:22:43;10.20;99.90
49042;DHT22;34859;51.608;11.462;2022-12-29T08:25:09;10.30;99.90
49042;DHT22;34859;51.608;11.462;2022-12-29T08:27:35;10.30;99.90
49042;DHT22;34859;51.608;11.462;2022-12-29T08:30:01;10.40;99.90
49042;DHT22;34859;51.608;11.462;2022-12-29T08:32:27;10.40;99.90
49042;DHT22;34859;51.608;11.462;2022-12-29T08:34:53;10.40;99.90
49042;DHT22;34859;51.608;11.462;2022-12-29T08:37:19;10.40;99.90
49042;DHT22;34859;51.608;11.462;2022-12-29T08:39:45;10.40;99.90
49042;DHT22;34859;51.608;11.462;2022-12-29T08:42:10;10.40;99.90
49042;DHT22;34859;51.608;11.462;2022-12-29T08:44:36;10.50;99.90
49042;DHT22;34859;51.608;11.462;2022-12-29T08:47:01;10.50;99.90
49042;DHT22;34859;51.608;11.462;2022-12-29T08:49:27;10.50;99.90
49042;DHT22;34859;51.608;11.462;2022-12-29T08:51:53;10.50;99.90
49042;DHT22;34859;51.608;11.462;2022-12-29T08:54:18;10.60;99.90
49042;DHT22;34859;51.608;11.462;2022-12-29T08:56:44;10.60;99.90
49042;DHT22;34859;51.608;11.462;2022-12-29T08:59:10;10.60;99.90
49042;DHT22;34859;51.608;11.462;2022-12-29T09:01:36;10.60;99.90
49042;DHT22;34859;51.608;11.462;2022-12-29T09:04:04;10.60;99.90
49042;DHT22;34859;51.608;11.462;2022-12-29T09:06:29;10.70;99.90
49042;DHT22;34859;51.608;11.462;2022-12-29T09:08:55;10.70;99.90
49042;DHT22;34859;51.608;11.462;2022-12-29T09:11:22;10.70;99.90
49042;DHT22;34859;51.608;11.462;2022-12-29T09:13:48;10.80;99.90
49042;DHT22;34859;51.608;11.462;2022-12-29T09:16:14;10.80;99.90
49042;DHT22;34859;51.608;11.462;2022-12-29T09:18:40;10.90;99.90
49042;DHT22;34859;51.608;11.462;2022-12-29T09:21:06;10.90;99.90
49042;DHT22;34859;51.608;11.462;2022-12-29T09:23:33;10.90;99.90
49042;DHT22;34859;51.608;11.462;2022-12-29T09:25:58;11.00;99.90
49042;DHT22;34859;51.608;11.462;2022-12-29T09:28:24;11.00;99.90
49042;DHT22;34859;51.608;11.462;2022-12-29T09:30:50;10.90;99.90
49042;DHT22;34859;51.608;11.462;2022-12-29T09:33:16;10.90;99.90
49042;DHT22;34859;51.608;11.462;2022-12-29T09:35:42;10.80;99.90
49042;DHT22;34859;51.608;11.462;2022-12-29T09:38:08;10.70;99.90
49042;DHT22;34859;51.608;11.462;2022-12-29T09:40:34;10.70;99.90
49042;DHT22;34859;51.608;11.462;2022-12-29T09:43:44;10.60;99.90
49042;DHT22;34859;51.608;11.462;2022-12-29T09:48:23;10.50;99.90
49042;DHT22;34859;51.608;11.462;2022-12-29T09:50:56;10.40;99.90
49042;DHT22;34859;51.608;11.462;2022-12-29T09:56:12;10.40;99.90
49042;DHT22;34859;51.608;11.462;2022-12-29T09:58:43;10.50;99.90
49042;DHT22;34859;51.608;11.462;2022-12-29T10:01:30;10.50;99.90
49042;DHT22;34859;51.608;11.462;2022-12-29T10:03:57;10.40;99.90
49042;DHT22;34859;51.608;11.462;2022-12-29T10:06:26;10.50;99.90
49042;DHT22;34859;51.608;11.462;2022-12-29T10:08:58;10.50;99.90
49042;DHT22;34859;51.608;11.462;2022-12-29T10:19:14;10.60;99.90
49042;DHT22;34859;51.608;11.462;2022-12-29T10:24:11;10.50;99.90
49042;DHT22;34859;51.608;11.462;2022-12-29T10:26:39;10.50;99.90
49042;DHT22;34859;51.608;11.462;2022-12-29T10:29:06;10.50;99.90
49042;DHT22;34859;51.608;11.462;2022-12-29T10:31:47;10.60;99.90
49042;DHT22;34859;51.608;11.462;2022-12-29T10:34:15;10.60;99.90
49042;DHT22;34859;51.608;11.462;2022-12-29T10:36:46;10.70;99.90
49042;DHT22;34859;51.608;11.462;2022-12-29T10:41:46;10.90;99.90
49042;DHT22;34859;51.608;11.462;2022-12-29T10:44:14;11.00;99.90
49042;DHT22;34859;51.608;11.462;2022-12-29T10:46:41;11.10;99.90
49042;DHT22;34859;51.608;11.462;2022-12-29T10:49:11;11.20;99.90
49042;DHT22;34859;51.608;11.462;2022-12-29T10:51:39;11.20;99.90
49042;DHT22;34859;51.608;11.462;2022-12-29T10:56:52;11.40;99.90
49042;DHT22;34859;51.608;11.462;2022-12-29T10:59:27;11.50;99.90
49042;DHT22;34859;51.608;11.462;2022-12-29T11:04:52;11.60;99.90
49042;DHT22;34859;51.608;11.462;2022-12-29T11:07:20;11.60;99.90
49042;DHT22;34859;51.608;11.462;2022-12-29T11:09:46;11.70;99.90
49042;DHT22;34859;51.608;11.462;2022-12-29T11:15:23;11.80;99.90
49042;DHT22;34859;51.608;11.462;2022-12-29T11:17:48;11.90;99.90
49042;DHT22;34859;51.608;11.462;2022-12-29T11:20:36;11.90;99.90
49042;DHT22;34859;51.608;11.462;2022-12-29T11:23:32;11.80;99.90
49042;DHT22;34859;51.608;11.462;2022-12-29T11:28:44;11.80;99.90
49042;DHT22;34859;51.608;11.462;2022-12-29T11:31:10;11.80;99.90
49042;DHT22;34859;51.608;11.462;2022-12-29T11:33:37;11.80;99.90
49042;DHT22;34859;51.608;11.462;2022-12-29T11:36:06;11.80;99.90
49042;DHT22;34859;51.608;11.462;2022-12-29T11:38:34;11.80;99.90
49042;DHT22;34859;51.608;11.462;2022-12-29T11:41:02;11.90;99.90
49042;DHT22;34859;51.608;11.462;2022-12-29T11:43:31;12.00;99.90
49042;DHT22;34859;51.608;11.462;2022-12-29T11:46:01;12.00;99.90
49042;DHT22;34859;51.608;11.462;2022-12-29T11:48:29;12.00;99.90
49042;DHT22;34859;51.608;11.462;2022-12-29T11:50:57;12.00;99.90
49042;DHT22;34859;51.608;11.462;2022-12-29T11:55:56;12.00;99.90
49042;DHT22;34859;51.608;11.462;2022-12-29T11:58:56;12.00;99.90
49042;DHT22;34859;51.608;11.462;2022-12-29T12:01:34;12.00;99.90
49042;DHT22;34859;51.608;11.462;2022-12-29T12:04:06;12.10;99.90
49042;DHT22;34859;51.608;11.462;2022-12-29T12:06:35;12.20;99.90
49042;DHT22;34859;51.608;11.462;2022-12-29T12:09:05;12.10;99.90
49042;DHT22;34859;51.608;11.462;2022-12-29T12:11:34;12.20;99.90
49042;DHT22;34859;51.608;11.462;2022-12-29T12:14:18;12.20;99.90
49042;DHT22;34859;51.608;11.462;2022-12-29T12:16:50;12.20;99.90
49042;DHT22;34859;51.608;11.462;2022-12-29T12:22:46;12.30;99.90
49042;DHT22;34859;51.608;11.462;2022-12-29T12:24:53;12.30;99.90
49042;DHT22;34859;51.608;11.462;2022-12-29T12:27:30;12.20;99.90
49042;DHT22;34859;51.608;11.462;2022-12-29T12:32:29;12.10;99.90
49042;DHT22;34859;51.608;11.462;2022-12-29T12:35:00;12.10;99.90
49042;DHT22;34859;51.608;11.462;2022-12-29T12:40:19;12.30;99.90
49042;DHT22;34859;51.608;11.462;2022-12-29T12:43:00;12.40;99.90
49042;DHT22;34859;51.608;11.462;2022-12-29T12:56:07;12.60;99.90
49042;DHT22;34859;51.608;11.462;2022-12-29T12:58:43;12.50;99.90
49042;DHT22;34859;51.608;11.462;2022-12-29T13:06:26;12.30;99.90
49042;DHT22;34859;51.608;11.462;2022-12-29T13:16:53;12.30;99.90
49042;DHT22;34859;51.608;11.462;2022-12-29T13:19:30;12.30;99.90
49042;DHT22;34859;51.608;11.462;2022-12-29T13:22:01;12.20;99.90
49042;DHT22;34859;51.608;11.462;2022-12-29T13:24:31;12.20;99.90
49042;DHT22;34859;51.608;11.462;2022-12-29T13:29:41;12.00;99.90
49042;DHT22;34859;51.608;11.462;2022-12-29T13:32:17;12.00;99.90
49042;DHT22;34859;51.608;11.462;2022-12-29T13:37:09;12.00;99.90
49042;DHT22;34859;51.608;11.462;2022-12-29T13:42:02;11.90;99.90
49042;DHT22;34859;51.608;11.462;2022-12-29T13:44:30;11.90;99.90
49042;DHT22;34859;51.608;11.462;2022-12-29T13:46:58;11.90;99.90
49042;DHT22;34859;51.608;11.462;2022-12-29T13:49:24;11.80;99.90
49042;DHT22;34859;51.608;11.462;2022-12-29T13:51:52;11.80;99.90
49042;DHT22;34859;51.608;11.462;2022-12-29T13:54:23;11.80;99.90
49042;DHT22;34859;51.608;11.462;2022-12-29T13:59:25;11.70;99.90
49042;DHT22;34859;51.608;11.462;2022-12-29T14:01:58;11.60;99.90
49042;DHT22;34859;51.608;11.462;2022-12-29T14:04:28;11.50;99.90
49042;DHT22;34859;51.608;11.462;2022-12-29T14:07:02;11.60;99.90
49042;DHT22;34859;51.608;11.462;2022-12-29T14:11:59;11.60;99.90
49042;DHT22;34859;51.608;11.462;2022-12-29T14:14:27;11.70;99.90
49042;DHT22;34859;51.608;11.462;2022-12-29T14:16:53;11.60;99.90
49042;DHT22;34859;51.608;11.462;2022-12-29T14:19:21;11.60;99.90
49042;DHT22;34859;51.608;11.462;2022-12-29T14:22:03;11.50;99.90
49042;DHT22;34859;51.608;11.462;2022-12-29T14:26:58;11.40;99.90
49042;DHT22;34859;51.608;11.462;2022-12-29T14:31:49;11.40;99.90
49042;DHT22;34859;51.608;11.462;2022-12-29T14:36:57;11.30;99.90
49042;DHT22;34859;51.608;11.462;2022-12-29T14:41:58;11.20;99.90
49042;DHT22;34859;51.608;11.462;2022-12-29T14:44:24;11.10;99.90
49042;DHT22;34859;51.608;11.462;2022-12-29T14:49:20;11.10;99.90
49042;DHT22;34859;51.608;11.462;2022-12-29T14:51:47;11.00;99.90
49042;DHT22;34859;51.608;11.462;2022-12-29T14:56:58;11.00;99.90
49042;DHT22;34859;51.608;11.462;2022-12-29T14:59:24;11.00;99.90
49042;DHT22;34859;51.608;11.462;2022-12-29T15:01:51;11.00;99.90
49042;DHT22;34859;51.608;11.462;2022-12-29T15:04:19;10.90;99.90
49042;DHT22;34859;51.608;11.462;2022-12-29T15:06:45;10.80;99.90
49042;DHT22;34859;51.608;11.462;2022-12-29T15:09:22;10.80;99.90
49042;DHT22;34859;51.608;11.462;2022-12-29T15:11:54;10.90;99.90
49042;DHT22;34859;51.608;11.462;2022-12-29T15:17:01;10.80;99.90
49042;DHT22;34859;51.608;11.462;2022-12-29T15:19:27;10.90;99.90
49042;DHT22;34859;51.608;11.462;2022-12-29T15:21:53;10.90;99.90
49042;DHT22;34859;51.608;11.462;2022-12-29T15:24:19;10.90;99.90
49042;DHT22;34859;51.608;11.462;2022-12-29T15:26:46;10.70;99.90
49042;DHT22;34859;51.608;11.462;2022-12-29T15:29:31;10.70;99.90
49042;DHT22;34859;51.608;11.462;2022-12-29T15:31:58;10.60;99.90
49042;DHT22;34859;51.608;11.462;2022-12-29T15:34:25;10.70;99.90
49042;DHT22;34859;51.608;11.462;2022-12-29T15:36:54;10.70;99.90
49042;DHT22;34859;51.608;11.462;2022-12-29T15:39:20;10.60;99.90
49042;DHT22;34859;51.608;11.462;2022-12-29T15:42:39;10.50;99.90
49042;DHT22;34859;51.608;11.462;2022-12-29T15:44:39;10.50;99.90
49042;DHT22;34859;51.608;11.462;2022-12-29T15:47:05;10.60;99.90
49042;DHT22;34859;51.608;11.462;2022-12-29T15:49:31;10.50;99.90
49042;DHT22;34859;51.608;11.462;2022-12-29T15:51:57;10.50;99.90
49042;DHT22;34859;51.608;11.462;2022-12-29T15:54:23;10.40;99.90
49042;DHT22;34859;51.608;11.462;2022-12-29T15:56:50;10.40;99.90
49042;DHT22;34859;51.608;11.462;2022-12-29T15:59:28;10.30;99.90
49042;DHT22;34859;51.608;11.462;2022-12-29T16:01:55;10.20;99.90
49042;DHT22;34859;51.608;11.462;2022-12-29T16:04:21;10.20;99.90
49042;DHT22;34859;51.608;11.462;2022-12-29T16:06:57;10.20;99.90
49042;DHT22;34859;51.608;11.462;2022-12-29T16:09:34;10.20;99.90
49042;DHT22;34859;51.608;11.462;2022-12-29T16:12:04;10.30;99.90
49042;DHT22;34859;51.608;11.462;2022-12-29T16:16:57;10.10;99.90
49042;DHT22;34859;51.608;11.462;2022-12-29T16:19:27;10.00;99.90
49042;DHT22;34859;51.608;11.462;2022-12-29T16:21:54;10.00;99.90
49042;DHT22;34859;51.608;11.462;2022-12-29T16:24:21;10.00;99.90
49042;DHT22;34859;51.608;11.462;2022-12-29T16:27:07;10.00;99.90
49042;DHT22;34859;51.608;11.462;2022-12-29T16:29:35;10.00;99.90
49042;DHT22;34859;51.608;11.462;2022-12-29T16:32:01;9.90;99.90
49042;DHT22;34859;51.608;11.462;2022-12-29T16:41:54;9.70;99.90
49042;DHT22;34859;51.608;11.462;2022-12-29T16:44:24;9.70;99.90
49042;DHT22;34859;51.608;11.462;2022-12-29T16:47:16;9.70;99.90
49042;DHT22;34859;51.608;11.462;2022-12-29T16:49:43;9.70;99.90
49042;DHT22;34859;51.608;11.462;2022-12-29T16:52:18;9.70;99.90
49042;DHT22;34859;51.608;11.462;2022-12-29T16:54:48;9.80;99.90
49042;DHT22;34859;51.608;11.462;2022-12-29T16:57:15;9.80;99.90
49042;DHT22;34859;51.608;11.462;2022-12-29T16:59:45;9.70;99.90
49042;DHT22;34859;51.608;11.462;2022-12-29T17:02:15;9.80;99.90
49042;DHT22;34859;51.608;11.462;2022-12-29T17:04:41;9.60;99.90
49042;DHT22;34859;51.608;11.462;2022-12-29T17:07:17;9.60;99.90
49042;DHT22;34859;51.608;11.462;2022-12-29T17:09:43;9.70;99.90
49042;DHT22;34859;51.608;11.462;2022-12-29T17:12:08;9.60;99.90
49042;DHT22;34859;51.608;11.462;2022-12-29T17:14:42;9.60;99.90
49042;DHT22;34859;51.608;11.462;2022-12-29T17:17:19;9.70;99.90
49042;DHT22;34859;51.608;11.462;2022-12-29T17:19:53;9.70;99.90
49042;DHT22;34859;51.608;11.462;2022-12-29T17:22:38;9.70;99.90
49042;DHT22;34859;51.608;11.462;2022-12-29T17:25:26;9.80;99.90
49042;DHT22;34859;51.608;11.462;2022-12-29T17:27:57;9.80;99.90
49042;DHT22;34859;51.608;11.462;2022-12-29T17:30:25;9.90;99.90
49042;DHT22;34859;51.608;11.462;2022-12-29T17:32:52;9.90;99.90
49042;DHT22;34859;51.608;11.462;2022-12-29T17:35:18;9.80;99.90
49042;DHT22;34859;51.608;11.462;2022-12-29T17:37:45;9.80;99.90
49042;DHT22;34859;51.608;11.462;2022-12-29T17:40:15;9.80;99.90
49042;DHT22;34859;51.608;11.462;2022-12-29T17:42:42;9.70;99.90
49042;DHT22;34859;51.608;11.462;2022-12-29T17:45:16;9.80;99.90
49042;DHT22;34859;51.608;11.462;2022-12-29T17:47:42;9.70;99.90
49042;DHT22;34859;51.608;11.462;2022-12-29T17:50:11;9.70;99.90
49042;DHT22;34859;51.608;11.462;2022-12-29T17:52:38;9.60;99.90